Time;durP1;ratioP1;P1;durP2;ratioP2;P2;SDS_P1;SDS_P2;PMS_P1;PMS_P2;Temp;Humidity;BMP_temperature;BMP_pressure;BME280_temperature;BME280_humidity;BME280_pressure;Samples;Min_cycle;Max_cycle;Signal;HPM_P1;HPM_P2
2022/03/13 05:17:55;;;;;;;19.27;13.65;;;;;;;2.50;60.83;98836.59;2621316;47;20041;-64
2022/03/13 05:20:24;;;;;;;22.95;15.13;;;;;;;2.32;61.39;98828.63;2623216;54;20065;-66
2022/03/13 05:22:54;;;;;;;27.77;15.07;;;;;;;2.23;62.43;98825.09;2623519;54;20031;-64
2022/03/13 05:25:27;;;;;;;23.17;14.48;;;;;;;2.31;62.85;98836.63;2623062;54;20026;-64
2022/03/13 05:27:57;;;;;;;16.63;12.85;;;;;;;2.59;62.74;98851.41;2623374;54;20061;-65
2022/03/13 05:30:26;;;;;;;18.92;12.27;;;;;;;2.86;62.14;98865.50;2624637;54;20030;-64
2022/03/13 05:32:59;;;;;;;20.88;12.95;;;;;;;3.00;61.79;98856.38;2625662;39;20469;-65
2022/03/13 05:35:29;;;;;;;19.83;13.55;;;;;;;3.00;60.83;98854.59;2624170;54;20026;-64
2022/03/13 05:37:59;;;;;;;18.70;12.88;;;;;;;2.87;60.58;98847.06;2623235;54;20522;-63
2022/03/13 05:40:29;;;;;;;15.82;11.75;;;;;;;2.83;61.55;98847.50;2622981;54;20023;-64
2022/03/13 05:43:00;;;;;;;18.92;12.48;;;;;;;2.96;61.15;98846.22;2622063;47;20041;-63
2022/03/13 05:45:31;;;;;;;17.85;11.23;;;;;;;2.95;60.76;98864.66;2622893;54;20066;-65
2022/03/13 05:48:10;;;;;;;18.88;12.45;;;;;;;2.95;60.34;98862.03;2623914;54;20030;-64
2022/03/13 05:50:40;;;;;;;18.02;12.88;;;;;;;2.97;60.12;98853.06;2623138;54;20067;-65
2022/03/13 05:53:10;;;;;;;19.23;11.75;;;;;;;2.88;60.45;98856.56;2623136;54;20042;-64
2022/03/13 05:55:39;;;;;;;16.55;11.95;;;;;;;2.91;60.20;98858.88;2622755;54;20092;-63
2022/03/13 05:58:10;;;;;;;17.05;11.32;;;;;;;2.94;60.08;98863.84;2622336;54;20031;-63
2022/03/13 06:00:40;;;;;;;17.77;12.00;;;;;;;3.15;60.28;98878.47;2621976;39;20403;-63
2022/03/13 06:03:13;;;;;;;17.58;12.07;;;;;;;3.35;59.47;98877.41;2622178;54;20026;-63
2022/03/13 06:05:42;;;;;;;20.05;13.20;;;;;;;3.21;59.02;98877.88;2621797;54;20041;-64
2022/03/13 06:08:12;;;;;;;18.50;13.07;;;;;;;3.11;59.29;98877.09;2623262;54;20086;-64
2022/03/13 06:10:42;;;;;;;21.00;13.32;;;;;;;3.12;59.44;98873.53;2622807;54;20031;-65
2022/03/13 06:13:12;;;;;;;19.20;12.55;;;;;;;3.02;59.58;98873.56;2621969;47;20027;-64
2022/03/13 06:15:42;;;;;;;19.40;13.77;;;;;;;3.17;59.16;98871.28;2622887;54;20027;-64
2022/03/13 06:18:14;;;;;;;22.00;14.55;;;;;;;3.16;59.36;98874.88;2623132;54;20912;-64
2022/03/13 06:20:44;;;;;;;20.48;14.05;;;;;;;3.24;59.59;98872.38;2623197;54;20027;-64
2022/03/13 06:23:13;;;;;;;19.88;13.57;;;;;;;3.37;58.76;98880.69;2623390;54;20054;-66
2022/03/13 06:25:43;;;;;;;22.83;14.25;;;;;;;3.42;58.25;98873.22;2622643;54;20042;-63
2022/03/13 06:28:19;;;;;;;21.40;13.65;;;;;;;3.38;58.94;98874.50;2623066;54;20031;-63
2022/03/13 06:30:49;;;;;;;18.08;12.90;;;;;;;3.58;58.97;98879.63;2622578;54;20035;-65
2022/03/13 06:33:21;;;;;;;18.77;12.63;;;;;;;3.70;58.51;98876.66;2622724;54;20086;-64
2022/03/13 06:35:51;;;;;;;21.42;13.73;;;;;;;3.79;58.01;98874.94;2620708;54;20553;-64
2022/03/13 06:38:21;;;;;;;19.42;12.77;;;;;;;3.86;58.24;98872.56;2620130;54;20077;-64
2022/03/13 06:40:51;;;;;;;21.80;13.82;;;;;;;3.97;57.90;98864.53;2620562;54;20055;-62
2022/03/13 06:43:21;;;;;;;20.42;13.23;;;;;;;4.03;57.48;98855.25;2623911;54;20030;-63
2022/03/13 06:45:51;;;;;;;16.98;12.98;;;;;;;4.05;57.03;98856.75;2623506;47;20565;-64
2022/03/13 06:48:26;;;;;;;18.80;14.35;;;;;;;4.01;57.15;98855.41;2623828;54;20035;-64
2022/03/13 06:50:58;;;;;;;21.10;13.95;;;;;;;4.11;56.95;98850.09;2624282;54;20129;-63
2022/03/13 06:53:28;;;;;;;19.50;13.15;;;;;;;4.23;57.10;98854.13;2625596;39;20552;-63
2022/03/13 06:55:58;;;;;;;22.60;14.93;;;;;;;4.28;56.26;98846.63;2624536;54;20038;-63
2022/03/13 06:58:27;;;;;;;17.05;12.63;;;;;;;4.11;56.08;98848.28;2624924;39;20471;-64
2022/03/13 07:00:57;;;;;;;21.15;13.73;;;;;;;4.07;56.50;98851.34;2624246;54;20034;-64
2022/03/13 07:03:30;;;;;;;20.52;13.55;;;;;;;4.16;56.65;98853.91;2624099;54;20082;-64
2022/03/13 07:06:02;;;;;;;19.20;13.45;;;;;;;4.34;56.10;98853.88;2624579;46;20042;-64
2022/03/13 07:08:32;;;;;;;19.42;13.30;;;;;;;4.42;55.61;98845.28;2625284;54;20107;-64
2022/03/13 07:11:02;;;;;;;17.73;13.52;;;;;;;4.55;55.71;98850.13;2625427;54;20015;-63
2022/03/13 07:13:32;;;;;;;17.63;12.40;;;;;;;4.72;56.11;98847.44;2625113;46;20019;-64
2022/03/13 07:16:03;;;;;;;19.63;13.45;;;;;;;4.97;55.59;98858.06;2625079;54;20026;-64
2022/03/13 07:18:35;;;;;;;20.27;13.88;;;;;;;5.08;54.80;98851.75;2624866;54;20042;-63
2022/03/13 07:21:05;;;;;;;19.88;13.45;;;;;;;5.17;54.92;98871.78;2625390;54;20074;-64
2022/03/13 07:23:35;;;;;;;19.27;12.63;;;;;;;5.25;54.32;98858.69;2625339;54;20038;-64
2022/03/13 07:26:05;;;;;;;17.13;12.40;;;;;;;5.28;54.12;98861.00;2625115;39;20478;-63
2022/03/13 07:28:34;;;;;;;19.17;13.98;;;;;;;5.38;53.75;98866.94;2625022;54;20031;-65
2022/03/13 07:31:04;;;;;;;18.15;13.02;;;;;;;5.36;53.19;98868.09;2624351;54;20046;-65
2022/03/13 07:33:36;;;;;;;17.50;12.65;;;;;;;5.42;53.26;98868.28;2625106;54;20049;-65
2022/03/13 07:36:06;;;;;;;17.98;13.07;;;;;;;5.51;52.90;98858.66;2625085;54;20037;-64
2022/03/13 07:38:36;;;;;;;18.80;12.85;;;;;;;5.67;52.83;98855.25;2624985;54;20031;-65
2022/03/13 07:41:06;;;;;;;25.42;14.18;;;;;;;5.84;52.77;98858.75;2625274;39;20446;-64
2022/03/13 07:43:35;;;;;;;22.38;14.38;;;;;;;5.93;52.46;98849.94;2627493;39;20396;-64
2022/03/13 07:46:05;;;;;;;19.15;13.18;;;;;;;5.95;52.38;98856.66;2625446;54;20039;-63
2022/03/13 07:48:38;;;;;;;17.40;13.38;;;;;;;6.13;52.71;98859.16;2625089;54;20046;-65
2022/03/13 07:51:08;;;;;;;18.47;12.97;;;;;;;6.34;51.86;98861.28;2625804;39;20438;-64
2022/03/13 07:53:40;;;;;;;30.30;14.63;;;;;;;6.45;51.24;98860.97;2625438;47;20045;-64
2022/03/13 07:56:09;;;;;;;21.23;14.57;;;;;;;6.55;51.38;98859.97;2624073;47;20030;-64
2022/03/13 07:58:39;;;;;;;29.25;17.92;;;;;;;6.62;51.44;98855.72;2624863;54;20033;-65
2022/03/13 08:01:08;;;;;;;22.60;15.45;;;;;;;6.74;51.12;98857.00;2625027;54;20027;-64
2022/03/13 08:03:44;;;;;;;20.20;13.68;;;;;;;6.84;50.94;98857.63;2624150;54;20041;-64
2022/03/13 08:06:14;;;;;;;21.48;14.38;;;;;;;6.92;50.93;98846.28;2624336;54;20034;-63
2022/03/13 08:08:44;;;;;;;19.27;14.45;;;;;;;6.98;50.08;98842.16;2624075;47;20046;-65
2022/03/13 08:11:14;;;;;;;20.50;15.63;;;;;;;6.97;49.95;98843.97;2624006;39;20681;-63
2022/03/13 08:13:43;;;;;;;19.70;14.68;;;;;;;7.00;49.67;98835.75;2624596;54;20050;-64
2022/03/13 08:16:13;;;;;;;19.30;14.43;;;;;;;6.97;49.40;98836.06;2623277;54;20537;-64
2022/03/13 08:18:45;;;;;;;24.33;15.57;;;;;;;7.04;49.25;98844.13;2623870;54;20060;-64
2022/03/13 08:21:16;;;;;;;28.13;19.25;;;;;;;7.23;49.61;98837.66;2623384;54;20034;-63
2022/03/13 08:23:45;;;;;;;27.27;16.02;;;;;;;7.44;48.96;98836.06;2623889;54;20032;-64
2022/03/13 08:26:15;;;;;;;22.40;16.13;;;;;;;7.61;48.70;98838.63;2623332;47;20041;-64
2022/03/13 08:28:45;;;;;;;17.27;13.55;;;;;;;7.79;47.81;98851.50;2622691;54;20039;-64
2022/03/13 08:31:15;;;;;;;20.73;14.95;;;;;;;7.95;47.69;98846.16;2623418;47;20030;-63
2022/03/13 08:33:49;;;;;;;19.60;14.38;;;;;;;7.98;46.34;98845.00;2624003;54;20030;-64
2022/03/13 08:36:18;;;;;;;18.23;13.90;;;;;;;7.95;45.43;98846.97;2623998;54;20023;-64
2022/03/13 08:38:48;;;;;;;19.55;14.15;;;;;;;8.00;45.58;98843.84;2623535;47;20026;-63
2022/03/13 08:41:18;;;;;;;20.23;13.73;;;;;;;8.06;44.68;98839.66;2623663;39;20399;-63
2022/03/13 08:43:48;;;;;;;22.08;12.70;;;;;;;8.08;44.62;98842.94;2623547;54;20030;-63
2022/03/13 08:46:18;;;;;;;17.83;13.43;;;;;;;8.04;44.32;98839.84;2623124;47;20034;-64
2022/03/13 08:48:50;;;;;;;16.35;12.40;;;;;;;8.09;43.83;98836.69;2623196;54;20044;-65
2022/03/13 08:51:23;;;;;;;16.73;12.40;;;;;;;8.16;43.24;98838.44;2624090;54;20038;-63
2022/03/13 08:53:53;;;;;;;15.57;11.82;;;;;;;8.12;42.19;98839.78;2623568;54;20514;-67
2022/03/13 08:56:23;;;;;;;19.45;12.45;;;;;;;8.15;41.96;98835.97;2624132;54;20033;-63
2022/03/13 08:58:53;;;;;;;22.50;12.88;;;;;;;8.18;41.61;98839.09;2623878;54;20037;-62
2022/03/13 09:01:24;;;;;;;17.73;13.38;;;;;;;8.22;41.59;98826.38;2622960;54;20026;-62
2022/03/13 09:03:58;;;;;;;15.65;11.90;;;;;;;8.29;40.69;98826.50;2622601;54;20542;-63
2022/03/13 09:06:27;;;;;;;28.50;18.95;;;;;;;8.34;40.84;98830.22;2623902;54;20034;-63
2022/03/13 09:08:57;;;;;;;17.73;13.82;;;;;;;8.41;41.14;98833.84;2623832;54;20030;-64
2022/03/13 09:11:27;;;;;;;17.27;11.98;;;;;;;8.52;41.03;98831.75;2623770;54;20033;-62
2022/03/13 09:13:57;;;;;;;20.33;13.00;;;;;;;8.66;41.22;98826.53;2622702;54;20030;-63
2022/03/13 09:16:27;;;;;;;18.98;13.05;;;;;;;8.74;40.79;98828.25;2624710;54;20569;-65
2022/03/13 09:18:59;;;;;;;21.42;13.40;;;;;;;8.82;40.29;98830.81;2623921;54;20649;-65
2022/03/13 09:21:31;;;;;;;22.13;14.85;;;;;;;8.85;40.11;98825.16;2624523;54;20133;-65
2022/03/13 09:24:01;;;;;;;20.50;13.95;;;;;;;8.92;40.33;98825.28;2623433;54;20038;-65
2022/03/13 09:26:30;;;;;;;19.73;13.48;;;;;;;9.04;40.54;98828.28;2624118;54;20045;-65
2022/03/13 09:29:00;;;;;;;18.75;14.05;;;;;;;9.15;40.11;98831.28;2622287;54;20038;-64
2022/03/13 09:31:30;;;;;;;17.92;13.23;;;;;;;9.25;40.39;98830.16;2623036;54;20034;-65
2022/03/13 09:34:02;;;;;;;15.05;12.65;;;;;;;9.39;39.66;98824.06;2622587;54;20550;-64
2022/03/13 09:36:36;;;;;;;16.17;12.85;;;;;;;9.49;39.47;98818.50;2622777;54;20042;-65
2022/03/13 09:39:07;;;;;;;20.30;13.77;;;;;;;9.53;39.65;98817.94;2622857;54;20035;-65
2022/03/13 09:41:38;;;;;;;22.45;14.98;;;;;;;9.60;39.30;98818.84;2622741;47;20023;-65
2022/03/13 09:44:10;;;;;;;22.13;14.00;;;;;;;9.70;39.15;98817.72;2622934;54;20038;-63
2022/03/13 09:46:40;;;;;;;44.28;21.58;;;;;;;9.83;39.31;98821.31;2622506;54;20026;-66
2022/03/13 09:49:13;;;;;;;45.70;21.52;;;;;;;9.91;39.19;98821.19;2622691;54;20041;-65
2022/03/13 09:51:43;;;;;;;68.82;33.70;;;;;;;10.05;39.47;98816.06;2621952;47;20573;-65
2022/03/13 09:54:13;;;;;;;33.45;19.60;;;;;;;10.22;38.38;98824.53;2622300;54;20038;-65
2022/03/13 09:56:42;;;;;;;66.50;31.33;;;;;;;10.23;39.00;98816.41;2622306;54;20026;-65
2022/03/13 09:59:12;;;;;;;30.42;17.20;;;;;;;10.36;38.29;98821.84;2621418;54;20034;-65
2022/03/13 10:01:41;;;;;;;43.53;22.42;;;;;;;10.51;38.06;98819.13;2623616;39;20498;-64
2022/03/13 10:04:14;;;;;;;34.42;18.10;;;;;;;10.61;37.48;98816.97;2621758;54;20031;-67
2022/03/13 10:07:03;;;;;;;180.60;71.78;;;;;;;10.75;37.52;98807.31;2622412;54;20038;-64
2022/03/13 10:09:33;;;;;;;54.60;27.58;;;;;;;10.88;36.95;98806.56;2622329;54;20038;-65
2022/03/13 10:12:13;;;;;;;26.45;16.88;;;;;;;10.98;36.79;98807.03;2621297;47;20030;-66
2022/03/13 10:15:03;;;;;;;31.67;17.70;;;;;;;11.10;36.52;98799.34;2623398;39;20573;-65
2022/03/13 10:17:34;;;;;;;42.63;20.90;;;;;;;11.20;36.44;98788.44;2623191;31;20546;-65
2022/03/13 10:20:17;;;;;;;30.75;18.38;;;;;;;11.29;36.63;98782.75;2622814;54;20031;-65
2022/03/13 10:22:49;;;;;;;53.50;26.87;;;;;;;11.40;36.08;98776.91;2622923;47;20027;-65
2022/03/13 10:25:31;;;;;;;56.03;34.60;;;;;;;11.47;35.88;98781.38;2623126;54;20389;-64
2022/03/13 10:28:15;;;;;;;62.22;31.67;;;;;;;11.55;35.83;98773.28;2624112;39;20434;-64
2022/03/13 10:30:47;;;;;;;46.63;22.90;;;;;;;11.59;35.81;98774.50;2623584;54;20039;-65
2022/03/13 10:33:17;;;;;;;51.28;28.90;;;;;;;11.72;36.01;98777.19;2623292;54;20030;-65
2022/03/13 10:35:50;;;;;;;20.35;14.73;;;;;;;11.79;35.99;98780.66;2623763;54;20044;-66
2022/03/13 10:38:21;;;;;;;40.80;24.80;;;;;;;11.88;35.78;98776.03;2623873;54;20026;-64
2022/03/13 10:40:56;;;;;;;22.65;16.40;;;;;;;12.02;35.42;98777.69;2624954;39;20555;-65
2022/03/13 10:43:27;;;;;;;56.85;27.40;;;;;;;12.14;35.45;98777.91;2625180;54;20102;-64
2022/03/13 10:45:58;;;;;;;22.65;15.07;;;;;;;12.21;35.20;98772.63;2623278;54;20031;-64
2022/03/13 10:48:33;;;;;;;24.73;16.45;;;;;;;12.24;35.30;98769.53;2624540;54;20115;-64
2022/03/13 10:51:08;;;;;;;24.40;16.50;;;;;;;12.29;35.13;98767.09;2624724;54;20034;-65
2022/03/13 10:53:41;;;;;;;18.17;13.98;;;;;;;12.36;34.80;98765.25;2624204;47;20041;-65
2022/03/13 10:56:13;;;;;;;16.67;13.13;;;;;;;12.38;34.86;98755.28;2623104;54;20073;-62
2022/03/13 10:58:48;;;;;;;22.52;15.82;;;;;;;12.53;34.75;98757.69;2623157;54;20087;-64
2022/03/13 11:01:19;;;;;;;23.30;15.30;;;;;;;12.58;34.25;98761.38;2623232;54;20094;-65
2022/03/13 11:03:53;;;;;;;27.50;17.20;;;;;;;12.66;34.42;98760.34;2623769;54;20034;-65
2022/03/13 11:06:27;;;;;;;16.98;13.32;;;;;;;12.78;34.42;98763.97;2623276;39;20433;-64
2022/03/13 11:08:58;;;;;;;;;;;;;;;12.91;33.94;98757.00;2623136;54;20042;-65
2022/03/13 11:11:30;;;;;;;18.00;12.40;;;;;;;12.85;34.44;98754.16;2621655;47;19958;-67
2022/03/13 11:14:02;;;;;;;15.98;12.55;;;;;;;12.88;34.60;98745.78;2621959;54;20038;-66
2022/03/13 11:16:33;;;;;;;15.48;12.05;;;;;;;13.11;34.12;98747.16;2623540;54;20030;-68
2022/03/13 11:19:09;;;;;;;18.95;13.57;;;;;;;13.26;33.85;98744.25;2617970;47;20061;-67
2022/03/13 11:21:44;;;;;;;109.53;70.25;;;;;;;13.27;33.55;98744.06;2618275;47;20019;-69
2022/03/13 11:24:14;;;;;;;28.05;19.35;;;;;;;13.37;33.98;98739.09;2618681;54;20604;-66
2022/03/13 11:26:45;;;;;;;17.63;12.73;;;;;;;13.45;34.10;98737.22;2618937;54;20034;-68
2022/03/13 11:29:16;;;;;;;17.75;13.40;;;;;;;13.50;33.73;98732.88;2618576;54;20026;-67
2022/03/13 11:31:47;;;;;;;16.60;12.50;;;;;;;13.56;33.28;98731.25;2618465;54;20130;-67
2022/03/13 11:34:18;;;;;;;16.58;12.48;;;;;;;13.54;32.75;98733.28;2620168;54;20046;-66
2022/03/13 11:36:52;;;;;;;21.25;12.32;;;;;;;13.53;33.11;98737.78;2622223;54;20747;-68
2022/03/13 11:39:27;;;;;;;16.42;12.05;;;;;;;13.52;33.06;98730.84;2624320;54;20060;-67
2022/03/13 11:41:57;;;;;;;16.17;11.02;;;;;;;13.56;33.10;98731.25;2622946;54;20541;-66
2022/03/13 11:44:42;;;;;;;16.48;11.15;;;;;;;13.61;33.36;98731.41;2623460;54;20039;-68
2022/03/13 11:47:23;;;;;;;15.68;11.38;;;;;;;13.76;33.61;98715.19;2623820;54;20034;-67
2022/03/13 11:49:53;;;;;;;17.42;12.52;;;;;;;13.88;33.14;98719.59;2623128;54;20034;-64
2022/03/13 11:52:32;;;;;;;16.03;12.37;;;;;;;14.02;32.15;98716.81;2619628;54;20034;-68
2022/03/13 11:55:10;;;;;;;18.42;13.48;;;;;;;14.18;32.38;98721.59;2619178;54;20263;-68
2022/03/13 11:57:45;;;;;;;16.80;12.48;;;;;;;14.28;31.79;98713.91;2618994;54;20031;-67
2022/03/13 12:00:34;;;;;;;17.05;13.27;;;;;;;14.33;31.16;98706.13;2619237;54;20041;-69
2022/03/13 12:03:15;;;;;;;17.27;13.43;;;;;;;14.33;31.43;98706.13;2618628;54;20030;-68
2022/03/13 12:05:53;;;;;;;15.10;11.68;;;;;;;14.47;31.97;98698.81;2618504;54;20061;-67
2022/03/13 12:08:28;;;;;;;12.73;10.43;;;;;;;14.63;32.20;98688.66;2618303;47;20030;-65
2022/03/13 12:10:58;;;;;;;11.65;9.73;;;;;;;14.81;31.98;98688.66;2618930;54;20039;-66
2022/03/13 12:13:32;;;;;;;16.02;10.98;;;;;;;14.95;32.21;98684.00;2622150;47;20042;-67
2022/03/13 12:16:17;;;;;;;11.98;10.57;;;;;;;15.01;32.28;98681.25;2623252;54;20038;-66
2022/03/13 12:18:47;;;;;;;12.90;11.10;;;;;;;15.04;32.35;98672.81;2623993;39;20542;-66
2022/03/13 12:21:21;;;;;;;12.15;10.32;;;;;;;15.13;31.81;98680.50;2623780;54;20034;-66
2022/03/13 12:23:53;;;;;;;12.07;9.07;;;;;;;15.15;32.40;98676.56;2623080;51;20534;-65
2022/03/13 12:26:25;;;;;;;13.60;10.10;;;;;;;15.16;32.13;98674.72;2622690;39;20429;-67
2022/03/13 12:28:58;;;;;;;11.50;9.80;;;;;;;15.18;32.56;98675.28;2622588;39;20426;-65
2022/03/13 12:31:28;;;;;;;16.95;10.60;;;;;;;15.29;32.65;98675.34;2619774;54;20074;-67
2022/03/13 12:34:01;;;;;;;12.77;10.00;;;;;;;15.41;32.83;98674.59;2618349;54;20030;-67
2022/03/13 12:36:37;;;;;;;12.68;9.60;;;;;;;15.37;32.96;98663.56;2618171;46;20051;-68
2022/03/13 12:39:14;;;;;;;13.05;10.52;;;;;;;15.40;32.85;98670.31;2619031;39;20129;-65
2022/03/13 12:41:45;;;;;;;12.60;9.90;;;;;;;15.45;32.50;98675.75;2618219;54;20138;-66
2022/03/13 12:44:16;;;;;;;13.35;10.25;;;;;;;15.48;32.86;98659.31;2618167;54;20042;-65
2022/03/13 12:46:50;;;;;;;12.70;10.50;;;;;;;15.52;32.38;98657.84;2618508;39;20425;-66
2022/03/13 12:49:20;;;;;;;;;;;;;;;15.61;32.51;98662.59;2618296;54;20538;-65
2022/03/13 12:51:51;;;;;;;19.48;15.32;;;;;;;15.65;32.53;98659.50;2618190;54;19950;-66
2022/03/13 12:54:29;;;;;;;14.35;12.25;;;;;;;15.68;32.70;98656.41;2618086;54;20046;-66
2022/03/13 12:57:04;;;;;;;15.55;11.23;;;;;;;15.89;32.55;98655.84;2618458;54;20034;-66
2022/03/13 12:59:38;;;;;;;12.20;10.10;;;;;;;15.97;32.22;98650.16;2617583;54;20030;-66
2022/03/13 13:02:14;;;;;;;12.57;9.55;;;;;;;15.81;32.15;98659.66;2617644;54;20038;-67
2022/03/13 13:04:47;;;;;;;14.23;10.75;;;;;;;15.74;32.74;98655.47;2617847;54;20049;-66
2022/03/13 13:07:18;;;;;;;13.80;10.25;;;;;;;15.58;32.37;98646.25;2619281;54;20037;-67
2022/03/13 13:09:51;;;;;;;13.38;10.88;;;;;;;15.53;32.51;98641.59;2621114;54;20038;-68
2022/03/13 13:12:23;;;;;;;16.65;11.82;;;;;;;15.50;32.48;98642.06;2620956;54;20026;-68
2022/03/13 13:14:54;;;;;;;14.32;11.95;;;;;;;15.42;32.87;98639.72;2621602;54;20514;-69
2022/03/13 13:17:25;;;;;;;14.32;11.48;;;;;;;15.44;33.39;98642.16;2621921;47;20561;-67
2022/03/13 13:19:57;;;;;;;16.00;12.15;;;;;;;15.44;33.23;98648.31;2622182;54;20031;-67
2022/03/13 13:22:30;;;;;;;13.65;11.63;;;;;;;15.49;33.42;98645.75;2622388;54;20034;-68
2022/03/13 13:25:10;;;;;;;15.43;12.63;;;;;;;15.58;33.55;98643.59;2623090;54;20041;-67
2022/03/13 13:27:44;;;;;;;16.95;12.68;;;;;;;15.57;33.47;98649.97;2620249;54;20049;-67
2022/03/13 13:30:26;;;;;;;16.83;12.05;;;;;;;15.59;33.32;98647.88;2618613;54;20042;-68
2022/03/13 13:33:00;;;;;;;16.30;11.60;;;;;;;15.63;33.51;98649.03;2618162;54;20057;-68
2022/03/13 13:35:34;;;;;;;16.52;12.85;;;;;;;15.66;33.55;98645.94;2617994;54;20073;-67
2022/03/13 13:38:10;;;;;;;12.82;10.90;;;;;;;15.66;33.64;98650.47;2618214;54;20661;-67
2022/03/13 13:40:45;;;;;;;14.77;11.82;;;;;;;15.72;33.61;98639.72;2619026;39;20422;-66
2022/03/13 13:43:26;;;;;;;19.88;14.15;;;;;;;15.80;33.88;98644.72;2618362;54;20121;-66
2022/03/13 13:46:05;;;;;;;14.40;11.68;;;;;;;15.92;33.83;98644.72;2617669;54;20034;-66
2022/03/13 13:48:36;;;;;;;15.18;11.90;;;;;;;16.01;33.42;98646.00;2617084;54;20043;-66
2022/03/13 13:51:35;;;;;;;15.43;11.68;;;;;;;16.08;33.09;98643.19;2617918;54;20027;-66
2022/03/13 13:54:17;;;;;;;15.38;11.50;;;;;;;16.02;33.32;98647.63;2616626;54;20042;-67
2022/03/13 13:56:55;;;;;;;;;;;;;;;15.97;33.46;98647.50;2617880;54;20061;-67
2022/03/13 13:59:28;;;;;;;18.20;12.23;;;;;;;15.93;33.76;98641.00;2617197;54;20442;-67
2022/03/13 14:02:15;;;;;;;16.47;12.10;;;;;;;15.91;33.28;98635.06;2617178;54;20534;-67
2022/03/13 14:04:46;;;;;;;16.50;12.15;;;;;;;16.00;33.27;98625.72;2617506;54;20307;-67
2022/03/13 14:07:18;;;;;;;17.10;12.75;;;;;;;16.23;32.59;98616.06;2618196;39;20454;-65
2022/03/13 14:09:48;;;;;;;12.73;10.57;;;;;;;16.25;32.85;98622.81;2617671;54;20027;-65
2022/03/13 14:12:20;;;;;;;16.55;11.60;;;;;;;16.30;32.80;98627.44;2617005;47;20034;-66
2022/03/13 14:14:50;;;;;;;15.50;11.43;;;;;;;16.29;33.14;98621.28;2617728;54;20038;-67
2022/03/13 14:17:20;;;;;;;16.10;11.70;;;;;;;16.35;32.90;98620.34;2618113;47;20107;-66
2022/03/13 14:19:50;;;;;;;15.07;11.18;;;;;;;16.55;32.71;98619.16;2618477;46;20038;-65
2022/03/13 14:22:20;;;;;;;16.27;11.20;;;;;;;16.71;32.63;98614.94;2618617;54;20038;-66
2022/03/13 14:24:50;;;;;;;16.88;12.05;;;;;;;16.92;32.39;98618.84;2618246;46;20058;-65
2022/03/13 14:27:22;;;;;;;19.20;14.65;;;;;;;16.98;32.00;98618.72;2618472;54;20038;-67
2022/03/13 14:29:52;;;;;;;16.25;13.40;;;;;;;16.82;31.85;98612.25;2617956;54;20038;-68
2022/03/13 14:32:22;;;;;;;12.80;10.20;;;;;;;16.85;32.27;98616.31;2618657;54;20030;-67
2022/03/13 14:34:52;;;;;;;11.57;9.68;;;;;;;16.94;32.10;98622.06;2618456;54;20038;-67
2022/03/13 14:37:22;;;;;;;11.95;9.70;;;;;;;16.94;32.24;98614.91;2618934;54;20041;-67
2022/03/13 14:40:13;;;;;;;13.55;10.07;;;;;;;16.93;32.21;98618.59;2618982;54;20035;-68
2022/03/13 14:42:46;;;;;;;13.57;10.07;;;;;;;16.92;31.58;98621.50;2618482;54;20045;-68
2022/03/13 14:45:16;;;;;;;13.23;10.15;;;;;;;16.86;31.67;98609.94;2618305;54;20057;-65
2022/03/13 14:47:46;;;;;;;13.20;10.27;;;;;;;16.79;31.95;98614.59;2617973;54;20027;-66
2022/03/13 14:50:36;;;;;;;13.10;9.48;;;;;;;16.72;32.17;98614.69;2618783;54;20034;-67
2022/03/13 14:53:06;;;;;;;13.73;10.57;;;;;;;16.70;31.86;98619.47;2617999;51;20041;-67
2022/03/13 14:55:36;;;;;;;23.95;18.67;;;;;;;16.70;32.06;98614.13;2618635;54;20027;-67
2022/03/13 14:58:09;;;;;;;17.00;12.10;;;;;;;16.77;31.90;98608.66;2618110;54;20161;-67
2022/03/13 15:00:40;;;;;;;13.13;11.20;;;;;;;16.78;31.71;98611.13;2617994;54;20034;-67
2022/03/13 15:03:10;;;;;;;14.07;11.00;;;;;;;16.89;31.89;98603.28;2618549;54;20070;-67
2022/03/13 15:05:41;;;;;;;13.52;11.07;;;;;;;16.99;31.91;98608.84;2618396;54;20029;-66
2022/03/13 15:08:11;;;;;;;12.25;9.80;;;;;;;17.08;31.93;98610.06;2618468;54;20046;-66
2022/03/13 15:10:41;;;;;;;13.05;10.20;;;;;;;17.24;31.34;98603.94;2618602;54;20034;-67
2022/03/13 15:13:21;;;;;;;11.63;9.65;;;;;;;17.20;31.43;98596.66;2617838;47;20036;-68
2022/03/13 15:15:52;;;;;;;;;;;;;;;17.12;31.04;98605.88;2617827;47;20114;-65
2022/03/13 15:18:24;;;;;;;15.40;11.47;;;;;;;17.07;31.04;98600.44;2618288;47;20491;-67
2022/03/13 15:20:54;;;;;;;15.65;11.80;;;;;;;16.95;30.89;98594.34;2618356;54;20268;-67
2022/03/13 15:23:25;;;;;;;14.70;11.05;;;;;;;16.96;31.28;98596.75;2618557;54;20066;-66
2022/03/13 15:25:55;;;;;;;14.40;11.25;;;;;;;16.98;31.18;98591.16;2618227;54;20035;-67
2022/03/13 15:28:28;;;;;;;16.70;12.23;;;;;;;17.04;31.23;98590.22;2618185;54;20034;-67
2022/03/13 15:30:58;;;;;;;12.75;9.75;;;;;;;17.09;31.14;98593.78;2617606;47;20034;-66
2022/03/13 15:33:28;;;;;;;14.30;11.38;;;;;;;17.27;31.15;98589.31;2618116;54;20034;-68
2022/03/13 15:35:58;;;;;;;13.18;11.48;;;;;;;17.39;30.34;98594.56;2617513;54;20037;-64
2022/03/13 15:38:28;;;;;;;15.32;10.95;;;;;;;17.36;30.18;98595.06;2618348;54;20039;-65
2022/03/13 15:40:57;;;;;;;13.02;10.80;;;;;;;17.32;30.49;98594.75;2618329;54;20057;-66
2022/03/13 15:43:31;;;;;;;11.57;9.18;;;;;;;17.36;30.79;98595.88;2618825;54;20030;-65
2022/03/13 15:46:01;;;;;;;13.30;9.27;;;;;;;17.37;30.75;98597.50;2617578;54;20027;-66
2022/03/13 15:48:31;;;;;;;16.63;12.30;;;;;;;17.34;30.20;98590.75;2617884;46;20027;-66
2022/03/13 15:51:00;;;;;;;14.80;12.43;;;;;;;17.23;29.97;98591.66;2618409;54;20059;-68
2022/03/13 15:53:30;;;;;;;14.30;11.13;;;;;;;17.25;30.17;98594.88;2617529;54;20137;-67
2022/03/13 15:56:04;;;;;;;14.55;11.50;;;;;;;17.22;30.10;98594.53;2618816;54;20026;-67
2022/03/13 15:58:37;;;;;;;13.65;11.25;;;;;;;17.20;30.25;98588.66;2618056;54;20033;-66
2022/03/13 16:01:07;;;;;;;13.55;10.98;;;;;;;17.21;30.10;98592.94;2618240;54;20046;-68
2022/03/13 16:03:37;;;;;;;12.63;9.70;;;;;;;17.05;30.54;98587.31;2618775;54;20022;-67
2022/03/13 16:06:06;;;;;;;15.23;9.77;;;;;;;16.91;30.59;98599.34;2618110;39;20434;-68
2022/03/13 16:08:39;;;;;;;11.07;9.68;;;;;;;16.62;30.96;98595.00;2618353;54;20064;-68
2022/03/13 16:11:09;;;;;;;13.45;9.73;;;;;;;16.38;31.56;98594.25;2617475;46;20027;-66
2022/03/13 16:13:42;;;;;;;13.05;9.50;;;;;;;16.20;31.58;98592.53;2618424;54;20034;-66
2022/03/13 16:16:12;;;;;;;10.57;8.88;;;;;;;16.05;32.32;98599.16;2618522;54;20033;-66
2022/03/13 16:18:42;;;;;;;12.48;8.57;;;;;;;15.95;32.11;98604.25;2618245;47;20138;-66
2022/03/13 16:21:12;;;;;;;12.57;8.98;;;;;;;15.89;32.19;98607.06;2619294;47;20050;-67
2022/03/13 16:23:42;;;;;;;12.32;9.02;;;;;;;15.83;32.30;98609.56;2620988;39;20541;-65
2022/03/13 16:26:11;;;;;;;9.85;7.97;;;;;;;15.79;32.93;98613.75;2620692;54;20081;-66
2022/03/13 16:28:44;;;;;;;10.57;8.57;;;;;;;15.78;32.61;98606.78;2621351;39;20438;-68
2022/03/13 16:31:14;;;;;;;11.02;8.88;;;;;;;15.68;33.07;98611.09;2620538;54;20034;-68
2022/03/13 16:33:44;;;;;;;12.90;10.02;;;;;;;15.61;33.21;98609.31;2620053;54;20052;-66
2022/03/13 16:36:13;;;;;;;14.40;10.98;;;;;;;15.62;32.60;98612.78;2619262;54;20102;-66
2022/03/13 16:38:46;;;;;;;15.00;10.30;;;;;;;15.57;32.54;98610.81;2619023;54;20037;-66
2022/03/13 16:41:16;;;;;;;14.15;10.77;;;;;;;15.51;32.82;98613.56;2618181;54;20033;-66
2022/03/13 16:43:48;;;;;;;12.85;9.80;;;;;;;15.45;32.92;98614.50;2617713;54;20542;-66
2022/03/13 16:46:18;;;;;;;33.63;27.38;;;;;;;15.34;32.71;98611.56;2618583;39;20702;-65
2022/03/13 16:48:47;;;;;;;32.28;23.55;;;;;;;15.25;33.12;98604.94;2617973;54;20606;-65
2022/03/13 16:51:17;;;;;;;16.20;11.82;;;;;;;15.19;33.16;98607.72;2618077;54;20037;-68
2022/03/13 16:53:47;;;;;;;15.50;11.27;;;;;;;15.07;33.26;98615.66;2618119;54;20133;-67
2022/03/13 16:56:17;;;;;;;14.43;11.07;;;;;;;14.97;33.38;98616.19;2618710;54;20034;-69
2022/03/13 16:58:53;;;;;;;16.17;11.65;;;;;;;14.90;33.50;98620.81;2619490;54;20027;-67
2022/03/13 17:01:23;;;;;;;18.60;11.33;;;;;;;14.78;33.34;98615.41;2618857;54;20042;-67